createdAt,value
2022-11-02T00:00:17.604Z,3.50
2022-11-02T00:02:23.288Z,3.65
2022-11-02T00:04:28.376Z,3.67
2022-11-02T00:06:33.543Z,3.45
2022-11-02T00:08:41.810Z,3.33
2022-11-02T00:10:47.043Z,3.42
2022-11-02T00:12:58.287Z,2.35
2022-11-02T00:15:03.644Z,2.50
2022-11-02T00:17:11.128Z,2.53
2022-11-02T00:19:16.476Z,2.42
2022-11-02T00:21:23.548Z,1.88
2022-11-02T00:23:29.421Z,2.60
2022-11-02T00:25:37.393Z,2.28
2022-11-02T00:29:48.946Z,2.30
2022-11-02T00:31:54.344Z,2.40
2022-11-02T00:34:01.380Z,2.38
2022-11-02T00:36:07.443Z,3.00
2022-11-02T00:38:12.401Z,2.65
2022-11-02T00:40:17.466Z,3.08
2022-11-02T00:42:25.526Z,3.08
2022-11-02T00:44:30.867Z,3.10
2022-11-02T00:46:36.908Z,3.13
2022-11-02T00:48:42.472Z,2.88
2022-11-02T00:50:56.957Z,3.00
2022-11-02T00:53:05.832Z,3.13
2022-11-02T00:55:13.198Z,2.90
2022-11-02T00:57:20.447Z,3.38
2022-11-02T00:59:28.736Z,2.83
2022-11-02T01:01:35.173Z,3.05
2022-11-02T01:03:40.839Z,3.78
2022-11-02T01:05:45.810Z,3.28
2022-11-02T01:07:51.190Z,3.22
2022-11-02T01:09:56.147Z,3.03
2022-11-02T01:12:01.091Z,3.15
2022-11-02T01:14:07.161Z,3.22
2022-11-02T01:16:16.629Z,2.83
2022-11-02T01:18:21.626Z,2.83
2022-11-02T01:20:28.534Z,2.95
2022-11-02T01:22:34.692Z,2.72
2022-11-02T01:24:40.042Z,3.40
2022-11-02T01:26:45.335Z,3.00
2022-11-02T01:28:50.588Z,2.50
2022-11-02T01:30:55.590Z,2.67
2022-11-02T01:33:03.460Z,2.67
2022-11-02T01:35:11.426Z,2.75
2022-11-02T01:37:17.239Z,2.50
2022-11-02T01:39:24.660Z,2.55
2022-11-02T01:41:30.062Z,2.72
2022-11-02T01:43:38.314Z,2.50
2022-11-02T01:45:44.109Z,2.83
2022-11-02T01:47:51.258Z,2.75
2022-11-02T01:50:03.730Z,2.97
2022-11-02T01:52:12.924Z,2.35
2022-11-02T01:54:22.533Z,2.40
2022-11-02T01:56:33.155Z,2.47
2022-11-02T01:58:38.433Z,2.30
2022-11-02T02:00:45.224Z,2.45
2022-11-02T02:02:56.302Z,2.35
2022-11-02T02:05:09.059Z,2.00
2022-11-02T02:07:16.367Z,2.67
2022-11-02T02:09:23.771Z,2.05
2022-11-02T02:11:32.100Z,2.10
2022-11-02T02:13:37.075Z,1.73
2022-11-02T02:15:50.725Z,1.90
2022-11-02T02:18:04.655Z,1.98
2022-11-02T02:20:35.135Z,2.17
2022-11-02T02:23:17.341Z,2.08
2022-11-02T02:26:01.466Z,1.95
2022-11-02T02:28:25.255Z,1.67
2022-11-02T02:30:36.670Z,1.67
2022-11-02T02:32:53.981Z,2.10
2022-11-02T02:35:05.371Z,2.33
2022-11-02T02:37:16.832Z,1.58
2022-11-02T02:39:30.036Z,1.70
2022-11-02T02:41:42.415Z,1.25
2022-11-02T02:43:55.088Z,1.55
2022-11-02T02:46:09.439Z,1.50
2022-11-02T02:48:20.032Z,1.95
2022-11-02T02:50:30.587Z,1.77
2022-11-02T02:52:39.120Z,1.60
2022-11-02T02:54:48.492Z,1.42
2022-11-02T02:57:03.616Z,1.52
2022-11-02T02:59:19.461Z,1.85
2022-11-02T03:01:26.259Z,1.40
2022-11-02T03:03:33.055Z,1.50
2022-11-02T03:05:40.134Z,1.60
2022-11-02T03:07:47.887Z,1.52
2022-11-02T03:10:01.074Z,1.55
2022-11-02T03:12:23.488Z,1.35
2022-11-02T03:14:45.410Z,1.33
2022-11-02T03:17:16.627Z,1.70
2022-11-02T03:19:37.964Z,1.25
2022-11-02T03:21:46.215Z,1.58
2022-11-02T03:23:58.808Z,1.60
2022-11-02T03:26:10.675Z,1.40
2022-11-02T03:28:28.859Z,2.00
2022-11-02T03:30:48.102Z,1.42
2022-11-02T03:33:02.051Z,1.35
2022-11-02T03:35:14.878Z,1.38
2022-11-02T03:37:25.300Z,1.55
2022-11-02T03:39:39.381Z,1.58
2022-11-02T03:41:48.348Z,1.23
2022-11-02T03:44:02.459Z,1.17
2022-11-02T03:46:14.914Z,1.30
2022-11-02T03:48:22.675Z,1.63
2022-11-02T03:50:27.973Z,1.35
2022-11-02T03:52:38.351Z,1.90
2022-11-02T03:54:50.311Z,1.50
2022-11-02T03:59:33.322Z,1.50
2022-11-02T04:01:46.610Z,1.58
2022-11-02T04:03:52.685Z,1.75
2022-11-02T04:05:58.013Z,1.70
2022-11-02T04:08:21.802Z,1.30
2022-11-02T04:10:33.698Z,1.55
2022-11-02T04:12:51.583Z,1.73
2022-11-02T04:17:14.875Z,1.80
2022-11-02T04:19:30.403Z,1.33
2022-11-02T04:21:39.399Z,2.20
2022-11-02T04:23:56.958Z,1.50
2022-11-02T04:25:59.775Z,1.95
2022-11-02T04:28:14.735Z,2.15
2022-11-02T04:30:34.062Z,1.73
2022-11-02T04:32:59.694Z,1.65
2022-11-02T04:35:11.094Z,1.48
2022-11-02T04:39:56.936Z,1.55
2022-11-02T04:42:02.136Z,1.35
2022-11-02T04:44:28.961Z,1.52
2022-11-02T04:46:54.154Z,1.40
2022-11-02T04:49:06.254Z,2.08
2022-11-02T04:51:13.671Z,1.67
2022-11-02T04:53:18.668Z,2.28
2022-11-02T04:55:26.747Z,1.52
2022-11-02T04:57:32.550Z,1.98
2022-11-02T04:59:39.266Z,1.38
2022-11-02T05:01:48.998Z,1.42
2022-11-02T05:03:58.028Z,2.00
2022-11-02T05:06:10.758Z,2.00
2022-11-02T05:08:16.198Z,1.45
2022-11-02T05:10:21.591Z,1.95
2022-11-02T05:12:29.509Z,1.85
2022-11-02T05:14:35.476Z,2.28
2022-11-02T05:16:41.121Z,1.60
2022-11-02T05:18:50.449Z,1.52
2022-11-02T05:21:00.203Z,1.67
2022-11-02T05:23:12.249Z,2.38
2022-11-02T05:25:17.750Z,1.58
2022-11-02T05:27:24.319Z,1.17
2022-11-02T05:29:30.318Z,1.88
2022-11-02T05:31:36.240Z,1.83
2022-11-02T05:33:43.011Z,1.70
2022-11-02T05:35:53.302Z,2.33
2022-11-02T05:37:59.254Z,2.03
2022-11-02T05:40:09.636Z,1.50
2022-11-02T05:42:16.635Z,1.73
2022-11-02T05:44:23.518Z,2.03
2022-11-02T05:46:29.272Z,1.70
2022-11-02T05:48:36.209Z,1.70
2022-11-02T05:50:41.938Z,1.70
2022-11-02T05:52:47.502Z,2.10
2022-11-02T05:54:53.538Z,1.88
2022-11-02T05:57:01.070Z,1.63
2022-11-02T05:59:12.549Z,1.98
2022-11-02T06:01:18.248Z,1.58
2022-11-02T06:03:23.949Z,2.10
2022-11-02T06:05:29.801Z,2.10
2022-11-02T06:07:36.982Z,2.22
2022-11-02T06:09:43.672Z,1.77
2022-11-02T06:11:49.439Z,2.40
2022-11-02T06:13:57.377Z,2.72
2022-11-02T06:16:03.668Z,2.20
2022-11-02T06:18:10.555Z,2.00
2022-11-02T06:20:15.805Z,1.92
2022-11-02T06:22:20.976Z,1.90
2022-11-02T06:24:26.723Z,2.80
2022-11-02T06:26:32.055Z,2.40
2022-11-02T06:28:39.051Z,3.08
2022-11-02T06:32:56.014Z,1.38
2022-11-02T06:35:01.753Z,2.10
2022-11-02T06:37:07.680Z,1.67
2022-11-02T06:39:14.150Z,1.98
2022-11-02T06:41:19.953Z,2.05
2022-11-02T06:43:27.932Z,2.55
2022-11-02T06:45:33.487Z,1.55
2022-11-02T06:47:41.817Z,1.95
2022-11-02T06:49:49.391Z,1.55
2022-11-02T06:51:54.864Z,1.60
2022-11-02T06:54:05.946Z,2.53
2022-11-02T06:56:15.076Z,2.63
2022-11-02T06:58:20.412Z,1.45
2022-11-02T07:00:26.288Z,2.30
2022-11-02T07:02:31.881Z,2.70
2022-11-02T07:04:41.428Z,1.80
2022-11-02T07:06:46.921Z,1.92
2022-11-02T07:08:53.179Z,1.95
2022-11-02T07:10:59.589Z,1.83
2022-11-02T07:13:06.433Z,1.65
2022-11-02T07:15:17.786Z,1.52
2022-11-02T07:17:22.853Z,2.13
2022-11-02T07:19:27.923Z,1.70
2022-11-02T07:21:36.147Z,1.50
2022-11-02T07:23:41.360Z,1.73
2022-11-02T07:25:48.136Z,1.52
2022-11-02T07:27:58.384Z,1.80
2022-11-02T07:30:05.940Z,1.52
2022-11-02T07:32:12.144Z,1.60
2022-11-02T07:34:20.641Z,1.50
2022-11-02T07:36:25.856Z,2.20
2022-11-02T07:38:33.915Z,2.08
2022-11-02T07:40:39.991Z,2.05
2022-11-02T07:42:50.525Z,2.25
2022-11-02T07:45:00.943Z,1.50
2022-11-02T07:47:06.234Z,1.95
2022-11-02T07:49:11.247Z,1.77
2022-11-02T07:51:19.349Z,1.88
2022-11-02T07:55:35.019Z,2.03
2022-11-02T07:57:40.880Z,1.80
2022-11-02T07:59:49.100Z,1.92
2022-11-02T08:01:54.317Z,2.53
2022-11-02T08:04:02.344Z,2.40
2022-11-02T08:06:09.263Z,2.35
2022-11-02T08:08:17.993Z,1.35
2022-11-02T08:10:23.189Z,1.50
2022-11-02T08:12:33.415Z,2.17
2022-11-02T08:14:38.704Z,1.92
2022-11-02T08:16:48.191Z,2.13
2022-11-02T08:18:53.678Z,2.03
2022-11-02T08:21:04.050Z,1.60
2022-11-02T08:23:15.552Z,1.88
2022-11-02T08:25:21.715Z,1.75
2022-11-02T08:27:27.140Z,1.70
2022-11-02T08:29:38.113Z,1.95
2022-11-02T08:31:43.748Z,1.70
2022-11-02T08:33:48.943Z,1.90
2022-11-02T08:35:56.077Z,2.75
2022-11-02T08:38:01.887Z,1.95
2022-11-02T08:40:09.363Z,1.95
2022-11-02T08:42:14.701Z,1.88
2022-11-02T08:44:19.889Z,1.98
2022-11-02T08:46:27.930Z,1.83
2022-11-02T08:48:33.460Z,2.05
2022-11-02T08:50:41.044Z,2.20
2022-11-02T08:52:46.499Z,1.98
2022-11-02T08:54:51.756Z,1.92
2022-11-02T08:56:58.583Z,2.30
2022-11-02T08:59:04.366Z,2.20
2022-11-02T09:01:10.354Z,1.75
2022-11-02T09:03:25.048Z,2.05
2022-11-02T09:05:34.492Z,1.73
2022-11-02T09:07:42.124Z,1.75
2022-11-02T09:09:49.201Z,2.63
2022-11-02T09:11:54.920Z,2.22
2022-11-02T09:14:01.398Z,1.50
2022-11-02T09:16:09.114Z,2.78
2022-11-02T09:18:17.271Z,1.77
2022-11-02T09:20:24.338Z,2.08
2022-11-02T09:22:29.304Z,1.73
2022-11-02T09:24:34.910Z,2.58
2022-11-02T09:26:40.277Z,3.15
2022-11-02T09:28:45.891Z,2.03
2022-11-02T09:30:53.236Z,2.20
2022-11-02T09:32:59.293Z,2.33
2022-11-02T09:35:13.695Z,1.85
2022-11-02T09:37:21.599Z,1.75
2022-11-02T09:39:26.980Z,1.83
2022-11-02T09:41:40.367Z,1.60
2022-11-02T09:44:01.167Z,1.80
2022-11-02T09:46:10.904Z,1.65
2022-11-02T09:48:28.033Z,1.45
2022-11-02T09:50:47.705Z,2.60
2022-11-02T09:52:59.859Z,1.85
2022-11-02T09:55:09.718Z,2.05
2022-11-02T09:57:30.487Z,2.85
2022-11-02T09:59:38.318Z,1.45
2022-11-02T10:02:01.645Z,1.48
2022-11-02T10:04:52.160Z,1.27
2022-11-02T10:07:14.152Z,1.30
2022-11-02T10:09:28.208Z,2.10
2022-11-02T10:11:45.004Z,1.35
2022-11-02T10:13:57.705Z,1.13
2022-11-02T10:16:10.157Z,1.80
2022-11-02T10:18:23.032Z,1.08
2022-11-02T10:20:32.758Z,1.60
2022-11-02T10:22:43.955Z,1.05
2022-11-02T10:24:53.237Z,1.50
2022-11-02T10:27:03.139Z,1.40
2022-11-02T10:29:18.853Z,2.05
2022-11-02T10:31:31.837Z,1.35
2022-11-02T10:33:40.438Z,1.20
2022-11-02T10:36:17.028Z,1.13
2022-11-02T10:38:42.479Z,1.65
2022-11-02T10:41:11.574Z,1.90
2022-11-02T10:43:32.127Z,1.70
2022-11-02T10:46:06.222Z,1.27
2022-11-02T10:48:20.729Z,1.55
2022-11-02T10:50:59.024Z,1.10
2022-11-02T10:53:34.801Z,1.38
2022-11-02T10:55:48.177Z,1.30
2022-11-02T10:57:55.963Z,1.20
2022-11-02T11:02:31.473Z,1.58
2022-11-02T11:04:37.766Z,1.80
2022-11-02T11:06:49.883Z,1.83
2022-11-02T11:09:01.440Z,1.25
2022-11-02T11:11:38.788Z,1.40
2022-11-02T11:16:16.827Z,1.38
2022-11-02T11:20:52.070Z,1.17
2022-11-02T11:23:23.335Z,1.23
2022-11-02T11:25:30.348Z,1.95
2022-11-02T11:27:48.948Z,2.17
2022-11-02T11:30:01.111Z,2.00
2022-11-02T11:32:06.945Z,1.50
2022-11-02T11:34:28.285Z,1.83
2022-11-02T11:36:37.222Z,1.40
2022-11-02T11:38:55.466Z,1.23
2022-11-02T11:41:02.485Z,1.48
2022-11-02T11:43:18.307Z,1.25
2022-11-02T11:45:28.287Z,1.50
2022-11-02T11:47:39.284Z,1.20
2022-11-02T11:50:15.147Z,1.40
2022-11-02T11:52:32.071Z,1.50
2022-11-02T11:54:42.856Z,1.60
2022-11-02T11:56:50.026Z,1.33
2022-11-02T11:58:59.127Z,1.65
2022-11-02T12:01:16.451Z,1.10
2022-11-02T12:03:21.510Z,1.10
2022-11-02T12:05:27.169Z,1.40
2022-11-02T12:08:04.602Z,1.55
2022-11-02T12:10:20.070Z,1.42
2022-11-02T12:12:37.940Z,1.42
2022-11-02T12:15:05.487Z,1.80
2022-11-02T12:17:44.245Z,1.20
2022-11-02T12:20:24.091Z,1.20
2022-11-02T12:22:47.717Z,1.58
2022-11-02T12:25:35.163Z,1.13
2022-11-02T12:30:14.730Z,1.17
2022-11-02T12:32:41.054Z,1.27
2022-11-02T12:35:28.278Z,1.25
2022-11-02T12:37:50.415Z,1.25
2022-11-02T12:40:16.572Z,1.63
2022-11-02T12:42:35.031Z,1.40
2022-11-02T12:44:59.570Z,2.45
2022-11-02T12:47:24.987Z,1.58
2022-11-02T12:49:44.883Z,1.00
2022-11-02T12:52:00.256Z,1.40
2022-11-02T12:54:14.105Z,0.85
2022-11-02T12:56:30.622Z,1.08
2022-11-02T12:58:41.416Z,1.10
2022-11-02T13:00:51.877Z,1.08
2022-11-02T13:03:10.371Z,1.25
2022-11-02T13:05:21.638Z,1.75
2022-11-02T13:07:34.026Z,1.90
2022-11-02T13:09:51.580Z,0.85
2022-11-02T13:12:06.291Z,1.55
2022-11-02T13:14:17.726Z,1.30
2022-11-02T13:16:33.692Z,0.95
2022-11-02T13:18:49.313Z,1.75
2022-11-02T13:21:00.580Z,1.20
2022-11-02T13:23:17.039Z,1.30
2022-11-02T13:25:36.063Z,1.17
2022-11-02T13:27:49.991Z,1.25
2022-11-02T13:30:04.506Z,0.73
2022-11-02T13:32:21.080Z,1.30
2022-11-02T13:34:36.857Z,0.85
2022-11-02T13:36:42.695Z,1.27
2022-11-02T13:38:56.036Z,1.20
2022-11-02T13:41:28.380Z,1.33
2022-11-02T13:44:07.593Z,1.65
2022-11-02T13:46:40.311Z,0.82
2022-11-02T13:49:03.963Z,1.40
2022-11-02T13:51:26.307Z,1.23
2022-11-02T13:53:37.775Z,1.42
2022-11-02T13:55:48.138Z,1.23
2022-11-02T13:58:03.523Z,1.08
2022-11-02T14:00:32.737Z,1.05
2022-11-02T14:02:45.229Z,1.60
2022-11-02T14:04:55.973Z,1.10
2022-11-02T14:07:08.428Z,1.67
2022-11-02T14:09:23.616Z,1.50
2022-11-02T14:11:47.927Z,1.23
2022-11-02T14:14:33.450Z,1.83
2022-11-02T14:16:47.279Z,1.23
2022-11-02T14:19:26.963Z,1.30
2022-11-02T14:21:47.239Z,1.25
2022-11-02T14:23:55.084Z,1.27
2022-11-02T14:26:01.767Z,2.25
2022-11-02T14:28:35.317Z,1.90
2022-11-02T14:30:49.121Z,1.10
2022-11-02T14:33:06.439Z,1.50
2022-11-02T14:35:36.379Z,1.27
2022-11-02T14:38:03.148Z,1.55
2022-11-02T14:40:27.661Z,1.27
2022-11-02T14:42:52.960Z,1.63
2022-11-02T14:45:47.107Z,1.65
2022-11-02T14:48:05.020Z,1.88
2022-11-02T14:52:34.859Z,1.70
2022-11-02T14:54:51.386Z,1.45
2022-11-02T14:57:08.089Z,1.90
2022-11-02T14:59:23.973Z,1.85
2022-11-02T15:01:31.375Z,1.58
2022-11-02T15:03:43.736Z,1.67
2022-11-02T15:05:49.601Z,1.88
2022-11-02T15:08:05.122Z,1.70
2022-11-02T15:10:48.687Z,1.95
2022-11-02T15:13:40.611Z,1.52
2022-11-02T15:15:48.266Z,1.80
2022-11-02T15:18:21.778Z,1.80
2022-11-02T15:20:31.388Z,1.73
2022-11-02T15:22:43.008Z,1.85
2022-11-02T15:24:49.406Z,1.50
2022-11-02T15:26:57.643Z,1.52
2022-11-02T15:29:10.359Z,1.58
2022-11-02T15:31:26.157Z,1.88
2022-11-02T15:33:39.674Z,2.30
2022-11-02T15:35:50.708Z,2.35
2022-11-02T15:38:16.932Z,2.33
2022-11-02T15:42:44.379Z,3.25
2022-11-02T15:45:48.935Z,2.88
2022-11-02T15:48:06.849Z,3.00
2022-11-02T15:50:36.219Z,3.95
2022-11-02T15:53:22.199Z,6.82
2022-11-02T15:55:39.038Z,6.22
2022-11-02T15:57:58.105Z,4.57
2022-11-02T16:00:15.198Z,2.30
2022-11-02T16:04:32.742Z,1.90
2022-11-02T16:06:42.010Z,2.65
2022-11-02T16:08:49.126Z,1.63
2022-11-02T16:11:05.569Z,2.22
2022-11-02T16:13:19.974Z,1.70
2022-11-02T16:15:27.774Z,2.15
2022-11-02T16:19:43.615Z,2.17
2022-11-02T16:21:49.917Z,2.33
2022-11-02T16:24:00.453Z,2.58
2022-11-02T16:26:09.511Z,2.10
2022-11-02T16:28:22.313Z,1.77
2022-11-02T16:30:27.375Z,2.20
2022-11-02T16:32:35.588Z,2.50
2022-11-02T16:34:42.155Z,2.20
2022-11-02T16:36:47.888Z,1.85
2022-11-02T16:39:01.453Z,2.50
2022-11-02T16:41:06.801Z,2.85
2022-11-02T16:43:17.389Z,2.28
2022-11-02T16:45:43.590Z,2.60
2022-11-02T16:47:51.639Z,2.63
2022-11-02T16:50:02.970Z,2.25
2022-11-02T16:52:22.414Z,2.47
2022-11-02T16:54:44.687Z,3.33
2022-11-02T16:56:52.583Z,7.15
2022-11-02T16:59:03.363Z,3.25
2022-11-02T17:01:08.748Z,3.00
2022-11-02T17:03:20.569Z,2.47
2022-11-02T17:05:28.575Z,4.07
2022-11-02T17:07:36.912Z,3.45
2022-11-02T17:09:43.998Z,3.30
2022-11-02T17:11:49.301Z,3.58
2022-11-02T17:14:00.063Z,3.35
2022-11-02T17:16:12.750Z,3.63
2022-11-02T17:18:30.816Z,3.28
2022-11-02T17:20:35.841Z,4.35
2022-11-02T17:22:51.181Z,4.97
2022-11-02T17:25:21.613Z,3.67
2022-11-02T17:27:30.098Z,3.38
2022-11-02T17:31:44.120Z,3.00
2022-11-02T17:33:52.299Z,2.88
2022-11-02T17:35:59.752Z,3.60
2022-11-02T17:38:06.642Z,2.75
2022-11-02T17:40:14.830Z,2.88
2022-11-02T17:42:34.656Z,3.28
2022-11-02T17:44:39.680Z,3.38
2022-11-02T17:46:46.105Z,3.13
2022-11-02T17:48:54.263Z,3.55
2022-11-02T17:51:02.403Z,3.72
2022-11-02T17:53:08.921Z,2.97
2022-11-02T17:55:19.026Z,3.72
2022-11-02T17:57:25.180Z,3.35
2022-11-02T17:59:31.186Z,3.50
2022-11-02T18:01:36.512Z,3.10
2022-11-02T18:03:42.799Z,3.40
2022-11-02T18:05:55.862Z,3.05
2022-11-02T18:08:04.966Z,3.03
2022-11-02T18:10:12.028Z,2.95
2022-11-02T18:12:20.707Z,3.08
2022-11-02T18:14:25.660Z,3.92
2022-11-02T18:16:31.002Z,3.65
2022-11-02T18:18:36.291Z,3.83
2022-11-02T18:20:42.327Z,3.22
2022-11-02T18:22:50.762Z,3.00
2022-11-02T18:24:55.756Z,3.13
2022-11-02T18:27:00.787Z,3.75
2022-11-02T18:29:07.466Z,3.70
2022-11-02T18:31:12.831Z,4.32
2022-11-02T18:33:18.113Z,4.18
2022-11-02T18:35:24.955Z,4.45
2022-11-02T18:37:30.388Z,4.05
2022-11-02T18:39:38.121Z,4.70
2022-11-02T18:41:43.087Z,4.47
2022-11-02T18:43:48.021Z,4.30
2022-11-02T18:45:53.463Z,4.88
2022-11-02T18:47:59.352Z,4.13
2022-11-02T18:50:04.710Z,4.40
2022-11-02T18:52:10.115Z,5.43
2022-11-02T18:54:18.003Z,4.03
2022-11-02T18:56:25.700Z,4.40
2022-11-02T18:58:31.178Z,5.15
2022-11-02T19:00:36.596Z,4.50
2022-11-02T19:02:42.417Z,3.78
2022-11-02T19:04:47.361Z,4.30
2022-11-02T19:07:05.839Z,4.22
2022-11-02T19:11:27.507Z,4.30
2022-11-02T19:13:34.259Z,5.30
2022-11-02T19:15:42.558Z,5.07
2022-11-02T19:17:47.889Z,5.60
2022-11-02T19:19:54.824Z,4.80
2022-11-02T19:21:59.889Z,4.70
2022-11-02T19:24:04.995Z,4.80
2022-11-02T19:26:10.105Z,5.30
2022-11-02T19:28:17.949Z,5.60
2022-11-02T19:30:23.039Z,5.03
2022-11-02T19:32:28.179Z,5.20
2022-11-02T19:34:33.822Z,4.97
2022-11-02T19:36:39.157Z,4.68
2022-11-02T19:38:44.135Z,5.03
2022-11-02T19:40:49.100Z,4.78
2022-11-02T19:42:54.873Z,4.38
2022-11-02T19:45:02.479Z,5.13
2022-11-02T19:47:07.714Z,5.20
2022-11-02T19:49:13.468Z,5.20
2022-11-02T19:51:20.878Z,5.18
2022-11-02T19:53:25.831Z,4.90
2022-11-02T19:55:30.836Z,5.05
2022-11-02T19:57:35.820Z,5.75
2022-11-02T19:59:41.582Z,6.63
2022-11-02T20:01:52.408Z,5.88
2022-11-02T20:03:58.361Z,5.78
2022-11-02T20:06:04.020Z,6.63
2022-11-02T20:08:09.553Z,8.48
2022-11-02T20:10:15.634Z,9.15
2022-11-02T20:12:21.037Z,9.43
2022-11-02T20:14:26.246Z,10.23
2022-11-02T20:16:31.553Z,10.20
2022-11-02T20:18:41.675Z,9.18
2022-11-02T20:20:47.040Z,8.45
2022-11-02T20:22:53.404Z,8.05
2022-11-02T20:24:58.363Z,8.32
2022-11-02T20:27:04.686Z,8.02
2022-11-02T20:29:13.809Z,7.47
2022-11-02T20:31:26.266Z,8.00
2022-11-02T20:33:31.465Z,8.23
2022-11-02T20:35:40.079Z,8.13
2022-11-02T20:37:45.047Z,7.78
2022-11-02T20:39:50.035Z,7.78
2022-11-02T20:41:57.125Z,7.90
2022-11-02T20:44:05.095Z,7.15
2022-11-02T20:46:36.378Z,8.15
2022-11-02T20:48:40.016Z,6.80
2022-11-02T20:50:47.718Z,7.30
2022-11-02T20:52:55.392Z,8.32
2022-11-02T20:55:00.596Z,7.22
2022-11-02T20:57:05.589Z,7.53
2022-11-02T20:59:10.798Z,7.95
2022-11-02T21:01:18.494Z,9.02
2022-11-02T21:05:28.816Z,8.18
2022-11-02T21:07:36.380Z,7.72
2022-11-02T21:09:41.416Z,7.18
2022-11-02T21:11:58.863Z,7.53
2022-11-02T21:14:04.968Z,8.52
2022-11-02T21:16:10.937Z,7.85
2022-11-02T21:18:16.223Z,7.18
2022-11-02T21:20:33.601Z,7.03
2022-11-02T21:24:48.365Z,7.78
2022-11-02T21:26:53.384Z,8.18
2022-11-02T21:28:58.345Z,7.00
2022-11-02T21:31:05.397Z,6.63
2022-11-02T21:33:12.929Z,7.60
2022-11-02T21:35:18.111Z,7.50
2022-11-02T21:37:23.719Z,6.57
2022-11-02T21:39:31.230Z,7.03
2022-11-02T21:41:38.584Z,7.80
2022-11-02T21:43:43.611Z,6.95
2022-11-02T21:45:54.613Z,7.68
2022-11-02T21:47:59.592Z,7.28
2022-11-02T21:50:05.218Z,7.88
2022-11-02T21:52:10.259Z,7.90
2022-11-02T21:54:15.317Z,7.15
2022-11-02T21:56:25.687Z,6.97
2022-11-02T21:58:31.538Z,7.57
2022-11-02T22:00:48.874Z,8.27
2022-11-02T22:02:53.857Z,8.27
2022-11-02T22:04:59.060Z,8.00
2022-11-02T22:07:05.008Z,7.93
2022-11-02T22:09:13.003Z,7.03
2022-11-02T22:13:33.048Z,7.50
2022-11-02T22:15:38.616Z,7.50
2022-11-02T22:17:49.700Z,7.65
2022-11-02T22:19:56.957Z,6.95
2022-11-02T22:22:02.095Z,7.43
2022-11-02T22:24:08.671Z,8.38
2022-11-02T22:26:15.984Z,7.05
2022-11-02T22:28:24.913Z,5.97
2022-11-02T22:30:34.072Z,7.15
2022-11-02T22:32:39.431Z,8.07
2022-11-02T22:34:44.397Z,7.28
2022-11-02T22:36:49.614Z,7.13
2022-11-02T22:38:53.760Z,7.60
2022-11-02T22:41:02.871Z,6.97
2022-11-02T22:43:08.169Z,6.78
2022-11-02T22:45:13.842Z,6.18
2022-11-02T22:47:21.420Z,5.97
2022-11-02T22:49:26.377Z,6.70
2022-11-02T22:51:34.938Z,6.35
2022-11-02T22:53:40.355Z,6.57
2022-11-02T22:55:45.335Z,6.93
2022-11-02T22:57:51.966Z,7.13
2022-11-02T22:59:58.803Z,7.13
2022-11-02T23:02:04.208Z,6.82
2022-11-02T23:04:14.255Z,6.88
2022-11-02T23:06:21.261Z,7.50
2022-11-02T23:10:50.542Z,7.43
2022-11-02T23:12:58.536Z,7.43
2022-11-02T23:15:03.773Z,8.02
2022-11-02T23:17:11.477Z,8.48
2022-11-02T23:19:30.528Z,7.72
2022-11-02T23:21:36.261Z,7.40
2022-11-02T23:23:53.703Z,6.93
2022-11-02T23:25:59.259Z,7.22
2022-11-02T23:28:16.627Z,7.57
2022-11-02T23:30:33.943Z,7.60
2022-11-02T23:32:39.381Z,7.45
2022-11-02T23:35:00.770Z,7.67
2022-11-02T23:37:08.312Z,7.78
2022-11-02T23:39:25.732Z,8.10
2022-11-02T23:41:32.586Z,7.28
2022-11-02T23:43:38.853Z,7.45
2022-11-02T23:45:43.839Z,8.02
2022-11-02T23:48:05.347Z,8.00
2022-11-02T23:50:14.238Z,6.80
2022-11-02T23:52:31.752Z,7.88
2022-11-02T23:54:49.293Z,7.38
2022-11-02T23:57:01.868Z,7.70
2022-11-02T23:59:09.611Z,7.55
